createdAt,value
2018-09-10T00:00:06.359Z,99070.77
2018-09-10T00:02:34.050Z,99072.89
2018-09-10T00:05:01.861Z,99072.09
2018-09-10T00:07:29.619Z,99069.67
2018-09-10T00:09:57.499Z,99066.75
2018-09-10T00:12:24.588Z,99072.63
2018-09-10T00:14:52.399Z,99074.48
2018-09-10T00:17:20.141Z,99079.59
2018-09-10T00:19:47.999Z,99079.06
2018-09-10T00:22:15.859Z,99082.52
2018-09-10T00:24:43.580Z,99090.03
2018-09-10T00:27:11.890Z,99090.56
2018-09-10T00:29:39.655Z,99083.06
2018-09-10T00:32:07.459Z,99079.31
2018-09-10T00:34:35.175Z,99081.44
2018-09-10T00:37:03.046Z,99076.38
2018-09-10T00:39:30.823Z,99079.33
2018-09-10T00:41:58.585Z,99070.48
2018-09-10T00:44:26.532Z,99078.25
2018-09-10T00:46:54.407Z,99079.05
2018-09-10T00:49:22.067Z,99079.05
2018-09-10T00:51:49.903Z,99079.30
2018-09-10T00:54:17.584Z,99077.16
2018-09-10T00:56:45.071Z,99083.06
2018-09-10T00:59:12.815Z,99089.45
2018-09-10T01:01:40.583Z,99086.78
2018-09-10T01:04:08.676Z,99092.69
2018-09-10T01:06:36.422Z,99088.39
2018-09-10T01:09:07.415Z,99086.25
2018-09-10T01:11:35.980Z,99089.73
2018-09-10T01:14:03.156Z,99091.59
2018-09-10T01:16:30.987Z,99091.59
2018-09-10T01:18:58.643Z,99085.99
2018-09-10T01:21:26.451Z,99083.56
2018-09-10T01:23:54.027Z,99085.99
2018-09-10T01:26:21.859Z,99084.09
2018-09-10T01:28:49.593Z,99072.07
2018-09-10T01:31:17.298Z,99066.20
2018-09-10T01:33:59.795Z,99069.95
2018-09-10T01:36:33.170Z,99074.20
2018-09-10T01:39:00.771Z,99070.73
2018-09-10T01:41:28.518Z,99071.78
2018-09-10T01:43:56.062Z,99070.45
2018-09-10T01:48:10.755Z,99050.38
2018-09-10T01:50:38.579Z,99061.09
2018-09-10T01:53:06.299Z,99063.25
2018-09-10T01:55:33.964Z,99055.73
2018-09-10T01:58:01.062Z,99061.63
2018-09-10T02:00:28.871Z,99059.22
2018-09-10T02:02:56.587Z,99057.33
2018-09-10T02:05:24.299Z,99058.41
2018-09-10T02:07:51.449Z,99055.47
2018-09-10T02:10:19.023Z,99055.44
2018-09-10T02:12:46.212Z,99051.72
2018-09-10T02:15:13.788Z,99058.64
2018-09-10T02:17:41.563Z,99059.22
2018-09-10T02:20:09.268Z,99054.08
2018-09-10T02:22:36.747Z,99060.79
2018-09-10T02:25:04.683Z,99058.38
2018-09-10T02:27:32.488Z,99058.09
2018-09-10T02:30:00.022Z,99060.50
2018-09-10T02:32:27.791Z,99060.24
2018-09-10T02:34:54.967Z,99063.44
2018-09-10T02:37:22.762Z,99064.78
2018-09-10T02:39:50.606Z,99067.45
2018-09-10T02:42:18.979Z,99067.16
2018-09-10T02:44:46.740Z,99061.53
2018-09-10T02:47:14.470Z,99073.32
2018-09-10T02:49:42.558Z,99083.75
2018-09-10T02:52:10.394Z,99078.11
2018-09-10T02:54:37.971Z,99081.86
2018-09-10T02:57:06.412Z,99082.94
2018-09-10T02:59:34.022Z,99079.45
2018-09-10T03:02:01.883Z,99081.05
2018-09-10T03:04:29.584Z,99075.44
2018-09-10T03:06:57.175Z,99082.64
2018-09-10T03:09:24.950Z,99079.45
2018-09-10T03:11:52.579Z,99078.11
2018-09-10T03:14:20.199Z,99070.91
2018-09-10T03:16:47.894Z,99072.51
2018-09-10T03:19:15.606Z,99075.15
2018-09-10T03:21:43.395Z,99070.06
2018-09-10T03:24:11.370Z,99069.02
2018-09-10T03:26:45.775Z,99069.55
2018-09-10T03:29:13.515Z,99068.47
2018-09-10T03:31:41.196Z,99055.89
2018-09-10T03:34:08.887Z,99053.77
2018-09-10T03:36:36.927Z,99048.69
2018-09-10T03:39:06.647Z,99049.50
2018-09-10T03:41:34.522Z,99057.78
2018-09-10T03:44:02.416Z,99058.05
2018-09-10T03:46:30.409Z,99067.66
2018-09-10T03:48:58.031Z,99060.69
2018-09-10T03:51:25.986Z,99063.39
2018-09-10T03:53:53.066Z,99055.60
2018-09-10T03:56:20.872Z,99070.85
2018-09-10T03:58:48.679Z,99077.53
2018-09-10T04:01:16.439Z,99083.39
2018-09-10T04:03:44.246Z,99082.36
2018-09-10T04:06:11.791Z,99082.32
2018-09-10T04:08:38.999Z,99083.91
2018-09-10T04:12:44.665Z,99073.75
2018-09-10T04:15:12.465Z,99086.84
2018-09-10T04:17:40.012Z,99080.20
2018-09-10T04:20:11.671Z,99091.93
2018-09-10T04:22:40.627Z,99091.67
2018-09-10T04:25:08.455Z,99090.30
2018-09-10T04:27:36.372Z,99094.05
2018-09-10T04:30:06.566Z,99094.08
2018-09-10T04:32:34.410Z,99091.38
2018-09-10T04:35:02.003Z,99087.63
2018-09-10T04:37:29.843Z,99093.27
2018-09-10T04:39:57.662Z,99096.72
2018-09-10T04:42:25.486Z,99093.27
2018-09-10T04:44:52.993Z,99099.13
2018-09-10T04:47:20.675Z,99099.13
2018-09-10T04:49:47.880Z,99092.45
2018-09-10T04:52:17.395Z,99090.81
2018-09-10T04:54:45.031Z,99099.64
2018-09-10T04:57:12.727Z,99101.23
2018-09-10T04:59:40.493Z,99114.59
2018-09-10T05:02:08.023Z,99114.86
2018-09-10T05:04:35.661Z,99121.57
2018-09-10T05:07:03.184Z,99114.89
2018-09-10T05:09:31.059Z,99128.21
2018-09-10T05:11:58.747Z,99123.68
2018-09-10T05:14:26.732Z,99131.14
2018-09-10T05:16:54.643Z,99117.26
2018-09-10T05:19:22.299Z,99119.67
2018-09-10T05:21:50.001Z,99129.28
2018-09-10T05:24:17.664Z,99123.90
2018-09-10T05:26:45.467Z,99129.24
2018-09-10T05:29:13.063Z,99131.44
2018-09-10T05:31:40.739Z,99129.03
2018-09-10T05:34:08.490Z,99136.27
2018-09-10T05:36:36.066Z,99142.95
2018-09-10T05:39:05.564Z,99144.80
2018-09-10T05:41:33.096Z,99138.11
2018-09-10T05:44:00.728Z,99140.48
2018-09-10T05:46:28.479Z,99149.32
2018-09-10T05:48:56.398Z,99143.45
2018-09-10T05:51:24.201Z,99143.98
2018-09-10T05:53:51.852Z,99144.53
2018-09-10T05:56:19.571Z,99147.21
2018-09-10T05:58:47.093Z,99148.24
2018-09-10T06:01:14.679Z,99156.81
2018-09-10T06:03:42.403Z,99152.55
2018-09-10T06:06:09.967Z,99156.56
2018-09-10T06:08:37.905Z,99156.81
2018-09-10T06:11:05.551Z,99150.41
2018-09-10T06:13:33.043Z,99153.13
2018-09-10T06:16:00.372Z,99147.27
2018-09-10T06:18:27.977Z,99156.35
2018-09-10T06:20:55.652Z,99163.81
2018-09-10T06:23:23.563Z,99156.86
2018-09-10T06:25:51.048Z,99154.41
2018-09-10T06:28:18.680Z,99156.30
2018-09-10T06:30:46.407Z,99160.52
2018-09-10T06:33:13.979Z,99157.59
2018-09-10T06:35:41.605Z,99151.17
2018-09-10T06:38:09.335Z,99161.33
2018-09-10T06:40:36.905Z,99161.08
2018-09-10T06:43:05.023Z,99164.52
2018-09-10T06:45:32.784Z,99169.31
2018-09-10T06:48:00.499Z,99167.45
2018-09-10T06:50:28.039Z,99169.85
2018-09-10T06:52:55.279Z,99174.38
2018-09-10T06:55:22.827Z,99175.72
2018-09-10T06:57:50.571Z,99174.12
2018-09-10T07:00:18.409Z,99167.70
2018-09-10T07:02:45.960Z,99167.14
2018-09-10T07:05:13.586Z,99168.48
2018-09-10T07:07:41.062Z,99169.81
2018-09-10T07:10:08.747Z,99173.30
2018-09-10T07:12:36.516Z,99177.05
2018-09-10T07:15:04.455Z,99187.22
2018-09-10T07:17:32.020Z,99183.73
2018-09-10T07:19:59.166Z,99184.29
2018-09-10T07:22:26.900Z,99190.97
2018-09-10T07:24:54.567Z,99193.90
2018-09-10T07:27:22.292Z,99190.97
2018-09-10T07:29:49.952Z,99185.63
2018-09-10T07:32:17.727Z,99191.23
2018-09-10T07:34:45.432Z,99197.36
2018-09-10T07:37:13.016Z,99194.43
2018-09-10T07:39:40.887Z,99197.09
2018-09-10T07:42:08.572Z,99193.39
2018-09-10T07:44:36.063Z,99192.05
2018-09-10T07:47:03.298Z,99192.05
2018-09-10T07:49:30.884Z,99203.56
2018-09-10T07:51:58.591Z,99198.99
2018-09-10T07:54:26.462Z,99200.07
2018-09-10T07:56:53.603Z,99202.75
2018-09-10T07:59:21.296Z,99204.09
2018-09-10T08:01:48.854Z,99209.98
2018-09-10T08:04:16.724Z,99201.98
2018-09-10T08:06:44.407Z,99205.17
2018-09-10T08:09:12.406Z,99206.55
2018-09-10T08:11:39.889Z,99208.67
2018-09-10T08:14:07.647Z,99198.80
2018-09-10T08:16:35.479Z,99200.95
2018-09-10T08:19:03.011Z,99202.81
2018-09-10T08:21:30.145Z,99208.98
2018-09-10T08:23:57.811Z,99208.98
2018-09-10T08:26:25.481Z,99205.23
2018-09-10T08:28:53.011Z,99206.60
2018-09-10T08:31:20.636Z,99193.46
2018-09-10T08:33:48.403Z,99204.76
2018-09-10T08:38:56.396Z,99220.54
2018-09-10T08:41:23.985Z,99221.36
2018-09-10T08:43:51.679Z,99218.98
2018-09-10T08:46:19.423Z,99218.73
2018-09-10T08:48:47.196Z,99218.99
2018-09-10T08:51:14.791Z,99220.86
2018-09-10T08:53:42.510Z,99220.34
2018-09-10T08:56:10.349Z,99218.48
2018-09-10T08:58:37.810Z,99212.61
2018-09-10T09:01:05.535Z,99222.23
2018-09-10T09:03:32.658Z,99219.04
2018-09-10T09:06:00.642Z,99215.30
2018-09-10T09:08:28.387Z,99215.30
2018-09-10T09:10:55.646Z,99209.42
2018-09-10T09:13:23.399Z,99209.16
2018-09-10T09:15:51.003Z,99211.05
2018-09-10T09:18:18.615Z,99209.49
2018-09-10T09:20:46.571Z,99201.73
2018-09-10T09:23:14.240Z,99210.31
2018-09-10T09:25:41.735Z,99205.48
2018-09-10T09:28:09.579Z,99202.55
2018-09-10T09:30:36.783Z,99208.72
2018-09-10T09:33:04.515Z,99199.65
2018-09-10T09:35:38.216Z,99198.57
2018-09-10T09:38:11.584Z,99191.36
2018-09-10T09:40:45.055Z,99191.63
2018-09-10T09:43:18.349Z,99195.64
2018-09-10T09:45:51.732Z,99198.08
2018-09-10T09:48:19.542Z,99189.23
2018-09-10T09:50:47.077Z,99186.30
2018-09-10T09:53:14.923Z,99187.11
2018-09-10T09:55:42.583Z,99196.77
2018-09-10T09:58:10.590Z,99185.25
2018-09-10T10:00:44.383Z,99184.98
2018-09-10T10:03:17.276Z,99186.06
2018-09-10T10:05:45.327Z,99178.85
2018-09-10T10:08:13.314Z,99172.16
2018-09-10T10:10:40.919Z,99171.89
2018-09-10T10:13:30.034Z,99168.69
2018-09-10T10:15:57.663Z,99160.14
2018-09-10T10:18:25.044Z,99160.66
2018-09-10T10:20:52.792Z,99165.74
2018-09-10T10:23:20.699Z,99164.15
2018-09-10T10:25:48.507Z,99166.30
2018-09-10T10:28:16.670Z,99171.91
2018-09-10T10:30:44.391Z,99177.55
2018-09-10T10:33:12.393Z,99176.99
2018-09-10T10:35:40.003Z,99170.85
2018-09-10T10:38:07.723Z,99178.87
2018-09-10T10:40:35.616Z,99167.36
2018-09-10T10:43:03.205Z,99175.44
2018-09-10T10:45:30.761Z,99175.17
2018-09-10T10:47:58.600Z,99171.42
2018-09-10T10:50:25.954Z,99167.14
2018-09-10T10:52:53.587Z,99166.61
2018-09-10T10:55:21.276Z,99166.05
2018-09-10T10:57:48.835Z,99165.52
2018-09-10T11:00:16.583Z,99163.39
2018-09-10T11:02:44.712Z,99159.64
2018-09-10T11:05:12.503Z,99163.94
2018-09-10T11:07:40.311Z,99168.73
2018-09-10T11:10:08.423Z,99170.36
2018-09-10T11:12:35.708Z,99166.60
2018-09-10T11:15:03.539Z,99163.66
2018-09-10T11:17:31.303Z,99156.70
2018-09-10T11:19:59.039Z,99154.83
2018-09-10T11:22:26.962Z,99151.32
2018-09-10T11:24:54.600Z,99146.52
2018-09-10T11:27:22.196Z,99148.11
2018-09-10T11:29:49.807Z,99140.88
2018-09-10T11:32:17.611Z,99145.45
2018-09-10T11:34:45.231Z,99148.37
2018-09-10T11:37:12.891Z,99141.41
2018-09-10T11:39:40.763Z,99149.98
2018-09-10T11:42:08.505Z,99151.58
2018-09-10T11:44:36.068Z,99143.27
2018-09-10T11:47:04.019Z,99144.34
2018-09-10T11:49:31.786Z,99145.97
2018-09-10T11:51:59.542Z,99145.15
2018-09-10T11:54:27.177Z,99143.02
2018-09-10T11:56:54.831Z,99141.41
2018-09-10T11:59:22.587Z,99140.05
2018-09-10T12:01:49.884Z,99131.75
2018-09-10T12:04:17.857Z,99123.71
2018-09-10T12:06:45.608Z,99121.84
2018-09-10T12:09:13.430Z,99123.44
2018-09-10T12:11:41.019Z,99124.78
2018-09-10T12:14:08.807Z,99121.83
2018-09-10T12:16:36.831Z,99128.52
2018-09-10T12:19:04.694Z,99127.43
2018-09-10T12:21:32.651Z,99121.02
2018-09-10T12:24:00.306Z,99120.19
2018-09-10T12:26:27.954Z,99114.34
2018-09-10T12:28:55.645Z,99117.27
2018-09-10T12:31:23.479Z,99112.45
2018-09-10T12:33:51.054Z,99114.58
2018-09-10T12:36:18.736Z,99108.16
2018-09-10T12:38:46.443Z,99104.92
2018-09-10T12:41:14.024Z,99099.30
2018-09-10T12:43:41.743Z,99093.95
2018-09-10T12:46:08.903Z,99087.78
2018-09-10T12:48:36.595Z,99084.83
2018-09-10T12:51:04.097Z,99083.47
2018-09-10T12:53:31.833Z,99078.11
2018-09-10T12:55:59.588Z,99078.11
2018-09-10T12:58:27.075Z,99078.65
2018-09-10T13:00:54.851Z,99078.09
2018-09-10T13:03:22.583Z,99075.97
2018-09-10T13:05:50.108Z,99073.80
2018-09-10T13:08:17.234Z,99075.42
2018-09-10T13:10:44.835Z,99066.30
2018-09-10T13:13:12.070Z,99060.92
2018-09-10T13:15:39.684Z,99056.37
2018-09-10T13:18:07.358Z,99059.86
2018-09-10T13:20:35.007Z,99055.28
2018-09-10T13:23:02.787Z,99035.25
2018-09-10T13:25:30.546Z,99054.99
2018-09-10T13:27:58.056Z,99054.72
2018-09-10T13:30:25.789Z,99055.00
2018-09-10T13:32:53.519Z,99060.34
2018-09-10T13:35:21.040Z,99054.17
2018-09-10T13:37:48.739Z,99055.52
2018-09-10T13:40:16.996Z,99050.94
2018-09-10T13:42:50.783Z,99059.80
2018-09-10T13:45:18.508Z,99052.81
2018-09-10T13:47:46.518Z,99056.84
2018-09-10T13:50:14.035Z,99044.75
2018-09-10T13:52:41.176Z,99048.50
2018-09-10T13:55:08.911Z,99034.83
2018-09-10T13:57:36.691Z,99036.97
2018-09-10T14:00:04.562Z,99035.07
2018-09-10T14:02:32.539Z,99029.71
2018-09-10T14:05:00.079Z,99035.05
2018-09-10T14:07:27.442Z,99039.86
2018-09-10T14:09:55.035Z,99036.63
2018-09-10T14:12:22.749Z,99027.22
2018-09-10T14:14:50.513Z,99032.05
2018-09-10T14:17:18.051Z,99034.44
2018-09-10T14:19:45.751Z,99029.58
2018-09-10T14:22:13.595Z,99039.25
2018-09-10T14:24:40.695Z,99037.64
2018-09-10T14:27:08.457Z,99032.27
2018-09-10T14:29:36.018Z,99033.87
2018-09-10T14:32:03.911Z,99036.52
2018-09-10T14:34:31.736Z,99037.59
2018-09-10T14:36:59.362Z,99032.50
2018-09-10T14:39:26.955Z,99032.75
2018-09-10T14:41:54.629Z,99028.98
2018-09-10T14:47:04.639Z,99031.11
2018-09-10T14:51:28.039Z,99026.28
2018-09-10T14:53:55.782Z,99017.70
2018-09-10T14:56:23.523Z,99020.91
2018-09-10T14:58:51.346Z,99016.33
2018-09-10T15:01:19.019Z,99012.55
2018-09-10T15:03:46.672Z,99012.53
2018-09-10T15:06:14.491Z,99010.66
2018-09-10T15:08:42.035Z,99010.91
2018-09-10T15:11:09.238Z,99017.06
2018-09-10T15:13:36.987Z,99011.94
2018-09-10T15:16:04.735Z,99014.91
2018-09-10T15:18:32.592Z,99009.56
2018-09-10T15:21:00.314Z,99015.74
2018-09-10T15:23:27.935Z,99017.89
2018-09-10T15:25:55.030Z,99018.95
2018-09-10T15:28:22.072Z,99016.84
2018-09-10T15:30:49.780Z,99013.62
2018-09-10T15:33:17.507Z,99020.30
2018-09-10T15:35:45.038Z,99010.66
2018-09-10T15:38:12.856Z,99017.61
2018-09-10T15:40:40.600Z,99011.47
2018-09-10T15:43:08.067Z,99018.70
2018-09-10T15:45:35.391Z,99017.86
2018-09-10T15:48:02.963Z,99023.80
2018-09-10T15:50:30.632Z,99030.22
2018-09-10T15:52:58.310Z,99032.37
2018-09-10T15:55:25.423Z,99038.27
2018-09-10T15:57:52.982Z,99036.93
2018-09-10T16:00:20.055Z,99043.89
2018-09-10T16:02:47.659Z,99035.84
2018-09-10T16:05:15.406Z,99042.02
2018-09-10T16:07:43.030Z,99044.14
2018-09-10T16:10:10.636Z,99038.52
2018-09-10T16:12:38.482Z,99043.36
2018-09-10T16:15:06.515Z,99043.86
2018-09-10T16:17:34.387Z,99039.84
2018-09-10T16:20:01.959Z,99036.09
2018-09-10T16:22:29.574Z,99033.94
2018-09-10T16:24:57.431Z,99036.09
2018-09-10T16:27:25.091Z,99046.83
2018-09-10T16:29:52.688Z,99045.73
2018-09-10T16:32:20.446Z,99049.77
2018-09-10T16:34:48.063Z,99044.67
2018-09-10T16:37:15.211Z,99044.42
2018-09-10T16:39:42.847Z,99045.20
2018-09-10T16:42:10.811Z,99051.63
2018-09-10T16:44:38.523Z,99044.67
2018-09-10T16:48:59.740Z,99053.51
2018-09-10T16:51:27.551Z,99054.80
2018-09-10T16:53:55.567Z,99050.30
2018-09-10T16:56:23.063Z,99054.32
2018-09-10T16:58:51.042Z,99054.60
2018-09-10T17:01:18.846Z,99055.38
2018-09-10T17:03:46.547Z,99055.66
2018-09-10T17:06:14.229Z,99052.47
2018-09-10T17:08:41.871Z,99046.02
2018-09-10T17:11:09.579Z,99052.73
2018-09-10T17:13:36.936Z,99050.84
2018-09-10T17:16:04.626Z,99032.14
2018-09-10T17:18:32.272Z,99045.23
2018-09-10T17:20:59.493Z,99050.29
2018-09-10T17:23:27.063Z,99046.33
2018-09-10T17:25:54.989Z,99053.28
2018-09-10T17:28:22.961Z,99056.50
2018-09-10T17:30:50.431Z,99058.40
2018-09-10T17:33:18.055Z,99056.52
2018-09-10T17:35:45.734Z,99061.10
2018-09-10T17:38:13.882Z,99062.72
2018-09-10T17:40:41.027Z,99069.96
2018-09-10T17:43:09.047Z,99062.77
2018-09-10T17:45:36.434Z,99068.92
2018-09-10T17:48:04.038Z,99067.88
2018-09-10T17:50:32.504Z,99065.75
2018-09-10T17:53:00.164Z,99072.73
2018-09-10T17:55:27.907Z,99075.42
2018-09-10T17:57:55.676Z,99072.20
2018-09-10T18:00:23.538Z,99073.55
2018-09-10T18:02:51.428Z,99072.18
2018-09-10T18:05:19.201Z,99066.05
2018-09-10T18:07:46.931Z,99071.42
2018-09-10T18:10:14.794Z,99079.21
2018-09-10T18:12:42.652Z,99079.21
2018-09-10T18:15:10.452Z,99080.80
2018-09-10T18:17:38.026Z,99072.25
2018-09-10T18:20:06.002Z,99077.05
2018-09-10T18:22:33.207Z,99080.82
2018-09-10T18:25:00.916Z,99084.84
2018-09-10T18:27:28.579Z,99086.46
2018-09-10T18:29:56.303Z,99083.52
2018-09-10T18:32:23.587Z,99091.56
2018-09-10T18:34:51.431Z,99085.41
2018-09-10T18:37:19.190Z,99091.59
2018-09-10T18:39:46.803Z,99091.86
2018-09-10T18:42:14.568Z,99094.29
2018-09-10T18:44:42.096Z,99095.36
2018-09-10T18:47:09.953Z,99099.41
2018-09-10T18:49:37.736Z,99099.13
2018-09-10T18:52:06.181Z,99103.14
2018-09-10T18:54:33.840Z,99105.32
2018-09-10T18:57:01.572Z,99110.43
2018-09-10T18:59:29.043Z,99108.55
2018-09-10T19:01:56.191Z,99111.50
2018-09-10T19:04:23.842Z,99114.20
2018-09-10T19:06:51.566Z,99115.26
2018-09-10T19:09:19.291Z,99112.33
2018-09-10T19:11:46.966Z,99124.13
2018-09-10T19:14:14.869Z,99128.97
2018-09-10T19:16:42.631Z,99125.73
2018-09-10T19:19:10.491Z,99124.13
2018-09-10T19:21:38.299Z,99126.56
2018-09-10T19:24:06.575Z,99123.05
2018-09-10T19:26:34.322Z,99127.90
2018-09-10T19:29:02.054Z,99121.45
2018-09-10T19:31:29.863Z,99128.16
2018-09-10T19:33:57.573Z,99126.00
2018-09-10T19:36:25.413Z,99125.73
2018-09-10T19:38:52.567Z,99131.36
2018-09-10T19:41:20.304Z,99127.09
2018-09-10T19:43:48.203Z,99122.00
2018-09-10T19:46:16.919Z,99124.67
2018-09-10T19:48:44.859Z,99122.80
2018-09-10T19:51:12.579Z,99123.07
2018-09-10T19:53:39.707Z,99127.65
2018-09-10T19:56:07.443Z,99122.00
2018-09-10T19:58:35.038Z,99120.13
2018-09-10T20:01:02.855Z,99127.36
2018-09-10T20:03:30.801Z,99129.27
2018-09-10T20:05:58.562Z,99129.27
2018-09-10T20:08:26.044Z,99133.81
2018-09-10T20:10:53.831Z,99134.63
2018-09-10T20:13:21.572Z,99139.16
2018-09-10T20:15:49.451Z,99139.42
2018-09-10T20:18:17.000Z,99151.23
2018-09-10T20:20:44.715Z,99149.89
2018-09-10T20:23:12.471Z,99152.84
2018-09-10T20:25:40.458Z,99156.34
2018-09-10T20:28:08.166Z,99153.67
2018-09-10T20:30:35.850Z,99155.55
2018-09-10T20:33:03.544Z,99161.16
2018-09-10T20:35:31.034Z,99176.73
2018-09-10T20:37:58.394Z,99183.43
2018-09-10T20:40:25.987Z,99184.22
2018-09-10T20:42:53.838Z,99182.89
2018-09-10T20:45:21.831Z,99187.44
2018-09-10T20:47:49.567Z,99194.41
2018-09-10T20:50:17.164Z,99189.60
2018-09-10T20:52:44.889Z,99193.33
2018-09-10T20:55:13.576Z,99199.51
2018-09-10T20:57:41.526Z,99195.23
2018-09-10T21:00:08.726Z,99202.98
2018-09-10T21:02:36.456Z,99212.11
2018-09-10T21:05:04.292Z,99214.00
2018-09-10T21:07:31.935Z,99216.13
2018-09-10T21:09:59.751Z,99214.27
2018-09-10T21:12:27.487Z,99209.97
2018-09-10T21:14:55.338Z,99209.70
2018-09-10T21:17:22.998Z,99207.03
2018-09-10T21:19:51.007Z,99193.87
2018-09-10T21:22:18.727Z,99205.43
2018-09-10T21:24:46.527Z,99202.20
2018-09-10T21:27:14.325Z,99212.92
2018-09-10T21:29:42.063Z,99210.52
2018-09-10T21:32:09.910Z,99209.70
2018-09-10T21:34:38.635Z,99205.42
2018-09-10T21:37:06.786Z,99209.70
2018-09-10T21:39:34.659Z,99207.02
2018-09-10T21:42:02.447Z,99213.46
2018-09-10T21:44:29.715Z,99210.53
2018-09-10T21:46:57.508Z,99215.31
2018-09-10T21:49:25.051Z,99212.62
2018-09-10T21:51:52.879Z,99213.97
2018-09-10T21:54:20.905Z,99217.49
2018-09-10T21:56:48.983Z,99212.11
2018-09-10T21:59:16.607Z,99216.39
2018-09-10T22:01:44.445Z,99214.80
2018-09-10T22:04:12.025Z,99215.84
2018-09-10T22:06:39.847Z,99213.98
2018-09-10T22:09:25.302Z,99217.72
2018-09-10T22:11:58.667Z,99220.40
2018-09-10T22:14:26.495Z,99221.23
2018-09-10T22:16:54.177Z,99226.33
2018-09-10T22:19:21.999Z,99216.95
2018-09-10T22:21:49.303Z,99218.00
2018-09-10T22:24:16.975Z,99216.14
2018-09-10T22:26:44.827Z,99218.27
2018-09-10T22:29:12.743Z,99215.86
2018-09-10T22:31:40.716Z,99212.38
2018-09-10T22:34:08.426Z,99207.56
2018-09-10T22:36:36.064Z,99206.23
2018-09-10T22:39:07.007Z,99209.44
2018-09-10T22:41:34.570Z,99206.76
2018-09-10T22:44:02.299Z,99204.91
2018-09-10T22:46:30.048Z,99208.63
2018-09-10T22:48:57.723Z,99208.64
2018-09-10T22:51:25.407Z,99213.98
2018-09-10T22:53:53.027Z,99208.11
2018-09-10T22:56:20.760Z,99205.15
2018-09-10T22:58:48.478Z,99204.89
2018-09-10T23:01:16.026Z,99198.19
2018-09-10T23:03:43.826Z,99196.04
2018-09-10T23:06:11.539Z,99200.88
2018-09-10T23:08:39.083Z,99200.61
2018-09-10T23:11:06.851Z,99200.06
2018-09-10T23:13:34.579Z,99200.34
2018-09-10T23:16:02.467Z,99201.16
2018-09-10T23:18:30.059Z,99205.95
2018-09-10T23:20:57.659Z,99211.31
2018-09-10T23:23:25.307Z,99217.20
2018-09-10T23:25:52.895Z,99218.81
2018-09-10T23:28:20.603Z,99227.66
2018-09-10T23:30:48.298Z,99221.49
2018-09-10T23:33:15.887Z,99231.68
2018-09-10T23:35:43.583Z,99231.13
2018-09-10T23:38:11.054Z,99234.33
2018-09-10T23:40:38.828Z,99233.26
2018-09-10T23:45:40.979Z,99237.83
2018-09-10T23:48:08.628Z,99197.87
2018-09-10T23:50:36.450Z,99239.95
2018-09-10T23:53:04.033Z,99241.03
2018-09-10T23:55:31.523Z,99242.92
2018-09-10T23:57:59.113Z,99238.36
